Flight Track Log - Related Links

Times and Time Zones

All times are in EDT time to prevent confusion due to time zone crossing. See the FAO832 flight status page for this flight to view local times or setup timezone preferences in your user account.


Time Position Orientation Groundspeed Altitude Reporting Facility
EDT Latitude Longitude Course Direction KTS MPH feet Rate Location/Type
Sat 09:43:38 AM 27.8833 -82.6833 344° North 163 188 900  Level Tampa TRACON
Sat 09:44:02 AM 27.8667 -82.6833 180° South 169 194 1,600 1,500 Climbing Tampa TRACON
Sat 09:45:02 AM 27.8167 -82.7000 196° South 250 288 3,000 619 Climbing Tampa TRACON
Sat 09:46:08 AM 27.8000 -82.7667 254° West 284 327 2,900 810 Descending Tampa TRACON
Sat 09:47:08 AM 27.8833 -82.8000 341° North 262 302 4,700 2,337 Climbing Tampa TRACON
Sat 09:49:00 AM 28.4717 -82.8017 344° North  Level FlightAware Approximate
Sat 09:49:18 AM 28.0519 -82.8267 352° North 295 339 10,300  Level Jacksonville Center
Sat 09:50:18 AM 28.1500 -82.8383 354° North 320 368 12,100 2,200 Climbing Jacksonville Center
Sat 09:51:18 AM 28.2522 -82.8525 353° North 352 405 14,700 2,400 Climbing Jacksonville Center
Sat 09:52:18 AM 28.3606 -82.8667 353° North 374 430 16,900 2,200 Climbing Jacksonville Center
Sat 09:53:18 AM 28.4692 -82.8831 352° North 385 443 19,100 2,000 Climbing Jacksonville Center
Sat 09:54:18 AM 28.5778 -82.8997 352° North 390 449 20,900 1,650 Climbing Jacksonville Center
Sat 09:55:18 AM 28.6694 -82.9114 354° North 397 457 22,400 1,550 Climbing Jacksonville Center
Sat 09:56:18 AM 28.8053 -82.9328 352° North 404 465 24,000 1,500 Climbing Jacksonville Center
Sat 09:57:18 AM 28.9242 -82.9494 353° North 417 480 25,400 1,650 Climbing Jacksonville Center
Sat 09:58:18 AM 29.0431 -82.9661 353° North 427 491 27,300 1,700 Climbing Jacksonville Center
Sat 09:59:18 AM 29.1581 -82.9947 348° North 427 491 28,800 1,750 Climbing Jacksonville Center
Sat 10:00:18 AM 29.2622 -83.0378 340° North 408 470 30,800 1,500 Climbing Jacksonville Center
Sat 10:01:18 AM 29.3667 -83.0783 341° North 395 455 31,800 600 Climbing Jacksonville Center
Sat 10:02:18 AM 29.4689 -83.1217 340° North 395 455 32,000 100 Climbing Jacksonville Center
Sat 10:03:18 AM 29.5689 -83.1600 342° North 406 467 32,000  Level Jacksonville Center
Sat 10:04:18 AM 29.6794 -83.2058 340° North 411 473 32,000  Level Jacksonville Center
Sat 10:05:18 AM 29.7881 -83.2467 342° North 411 473 32,000  Level Jacksonville Center
Sat 10:06:18 AM 29.9047 -83.2950 340° North 406 467 32,000  Level Jacksonville Center
Sat 10:07:18 AM 30.0131 -83.3386 341° North 406 467 32,000  Level Jacksonville Center
Sat 10:08:18 AM 30.1172 -83.3800 341° North 406 467 32,000  Level Jacksonville Center
Sat 10:09:18 AM 30.2258 -83.4239 341° North 406 467 32,000  Level Jacksonville Center
Sat 10:10:18 AM 30.3342 -83.4653 342° North 406 467 32,000  Level Jacksonville Center
Sat 10:11:18 AM 30.4444 -83.5117 340° North 406 467 32,000  Level Jacksonville Center
Sat 10:12:18 AM 30.5531 -83.5558 341° North 406 467 32,000  Level Jacksonville Center
Sat 10:13:18 AM 30.6614 -83.6003 341° North 406 467 32,000  Level Jacksonville Center
Sat 10:14:18 AM 30.7694 -83.6469 340° North 406 467 32,000  Level Jacksonville Center
Sat 10:15:18 AM 30.8758 -83.6914 340° North 406 467 32,000  Level Jacksonville Center
Sat 10:16:18 AM 30.9842 -83.7333 342° North 406 467 32,000  Level Jacksonville Center
Sat 10:17:18 AM 31.0903 -83.7806 339° North 411 473 32,000  Level Jacksonville Center
Sat 10:18:18 AM 31.2006 -83.8228 342° North 411 473 32,000  Level Jacksonville Center
Sat 10:20:10 AM 31.4000 -83.9100 340° North 404 465 32,000  Level Atlanta Center
Sat 10:21:10 AM 31.5067 -83.9536 341° North 409 471 32,000  Level Atlanta Center
Sat 10:22:10 AM 31.6214 -83.9828 348° North 409 471 32,000  Level Atlanta Center
Sat 10:23:10 AM 31.7342 -84.0072 350° North 409 471 32,000  Level Atlanta Center
Sat 10:24:10 AM 31.8489 -84.0317 350° North 414 476 32,000  Level Atlanta Center
Sat 10:25:10 AM 31.9617 -84.0558 350° North 414 476 32,000  Level Atlanta Center
Sat 10:26:10 AM 32.0742 -84.0831 348° North 414 476 32,000  Level Atlanta Center
Sat 10:27:10 AM 32.1850 -84.1075 349° North 408 470 32,000  Level Atlanta Center
Sat 10:28:10 AM 32.2975 -84.1322 349° North 408 470 32,000  Level Atlanta Center
Sat 10:30:10 AM 32.5208 -84.1842 349° North 413 475 32,000  Level Atlanta Center
Sat 10:31:10 AM 32.6211 -84.2067 349° North 413 475 32,000  Level Atlanta Center
Sat 10:32:10 AM 32.7317 -84.2314 349° North 413 475 32,000  Level Atlanta Center
Sat 10:33:10 AM 32.8528 -84.2639 347° North 413 475 32,000  Level Atlanta Center
Sat 10:34:10 AM 32.9633 -84.2889 349° North 413 475 32,000 -350 Level Atlanta Center
Sat 10:35:10 AM 33.0739 -84.3139 349° North 408 470 31,300 -700 Descending Atlanta Center
Sat 10:36:10 AM 33.1844 -84.3392 349° North 403 464 30,600 -650 Descending Atlanta Center
Sat 10:37:10 AM 33.2969 -84.3644 349° North 408 470 30,000 -300 Descending Atlanta Center
Sat 10:38:10 AM 33.3950 -84.3872 349° North 408 470 30,000  Level Atlanta Center
Sat 10:39:10 AM 33.5078 -84.4125 349° North 413 475 30,000  Level Atlanta Center
Sat 10:40:10 AM 33.6328 -84.4306 353° North 407 468 30,000  Level Atlanta Center
Sat 10:41:10 AM 33.7289 -84.4158 North 415 478 30,000 -300 Level Atlanta Center
Sat 10:42:10 AM 33.8814 -84.3867 North 430 495 29,400 -600 Descending Atlanta Center
Sat 10:43:10 AM 33.9983 -84.3644 North 435 501 28,800 -650 Descending Atlanta Center
Sat 10:44:10 AM 34.1258 -84.3400 North 440 506 28,100 -700 Descending Atlanta Center
Sat 10:45:10 AM 34.2428 -84.3153 10° North 464 534 27,400 -700 Descending Atlanta Center
Sat 10:46:10 AM 34.3658 -84.2881 10° North 464 534 26,700 -700 Descending Atlanta Center
Sat 10:47:10 AM 34.4911 -84.2631 North 459 528 26,000 -700 Descending Atlanta Center
Sat 10:48:10 AM 34.6039 -84.2406 North 429 494 25,300 -1,350 Descending Atlanta Center
Sat 10:49:10 AM 34.7186 -84.2183 North 409 471 23,300 -2,050 Descending Atlanta Center
Sat 10:50:10 AM 34.8272 -84.1983 North 409 471 21,200 -2,050 Descending Atlanta Center
Sat 10:51:10 AM 34.9378 -84.1756 10° North 404 465 19,200 -2,000 Descending Atlanta Center
Sat 10:52:10 AM 35.0422 -84.1556 North 399 459 17,200 -2,000 Descending Atlanta Center
Sat 10:53:10 AM 35.1444 -84.1353 North 385 443 15,200 -2,050 Descending Atlanta Center
Sat 10:54:10 AM 35.2425 -84.1150 10° North 368 423 13,100 -1,950 Descending Atlanta Center
Sat 10:55:10 AM 35.3386 -84.0947 10° North 356 410 11,300 -1,050 Descending Atlanta Center
Sat 10:56:10 AM 35.4219 -84.0822 North 331 381 11,000 -150 Descending Atlanta Center
Sat 10:57:10 AM 35.4972 -84.0975 351° North 291 335 11,000 -100 Level Atlanta Center
Sat 10:58:10 AM 35.5742 -84.1000 358° North 272 313 10,800 -950 Descending Atlanta Center
Sat 10:59:10 AM 35.6286 -84.0311 46° Northeast 251 289 9,100 -1,800 Descending Atlanta Center
Sat 11:00:10 AM 35.6828 -83.9619 46° Northeast 256 295 7,200 -1,600 Descending Atlanta Center
Sat 11:01:10 AM 35.7350 -83.8903 48° Northeast 263 303 5,900 -750 Descending Atlanta Center
Sat 11:02:10 AM 35.7806 -83.8314 46° Northeast 258 297 5,700 -400 Descending Atlanta Center
Sat 11:03:10 AM 35.8222 -83.7956 35° Northeast 217 250 5,100 -800 Descending Atlanta Center
Sat 11:04:10 AM 35.8600 -83.8414 315° West 143 165 4,100 -1,000 Descending Atlanta Center
Sat 11:06:00 AM 35.8000 -83.9833 219° Southwest  Level FlightAware Approximate

Login

Don't have an account? Register now (free) for customized features, flight alerts, and more!